createdAt,value
2019-01-08T00:00:22.069Z,-14.26
2019-01-08T00:02:56.359Z,-14.51
2019-01-08T00:05:28.972Z,-14.55
2019-01-08T00:08:03.045Z,-14.27
2019-01-08T00:10:36.270Z,-14.27
2019-01-08T00:13:09.479Z,-14.01
2019-01-08T00:15:43.027Z,-13.93
2019-01-08T00:18:16.270Z,-13.82
2019-01-08T00:20:52.175Z,-14.15
2019-01-08T00:23:25.698Z,-14.08
2019-01-08T00:25:58.675Z,-14.00
2019-01-08T00:28:32.041Z,-14.02
2019-01-08T00:31:05.001Z,-13.91
2019-01-08T00:33:37.956Z,-13.89
2019-01-08T00:36:10.711Z,-13.99
2019-01-08T00:38:44.716Z,-13.99
2019-01-08T00:41:18.321Z,-13.85
2019-01-08T00:43:51.607Z,-13.82
2019-01-08T00:46:24.627Z,-13.80
2019-01-08T00:48:58.594Z,-13.71
2019-01-08T00:51:32.419Z,-13.54
2019-01-08T00:54:06.910Z,-13.39
2019-01-08T00:56:39.748Z,-13.21
2019-01-08T00:59:13.687Z,-13.26
2019-01-08T01:01:46.651Z,-13.19
2019-01-08T01:04:19.584Z,-13.22
2019-01-08T01:06:52.914Z,-12.98
2019-01-08T01:09:26.148Z,-12.89
2019-01-08T01:11:59.410Z,-12.77
2019-01-08T01:14:33.469Z,-12.72
2019-01-08T01:17:06.532Z,-12.69
2019-01-08T01:19:39.689Z,-12.53
2019-01-08T01:22:13.869Z,-12.72
2019-01-08T01:24:46.915Z,-12.52
2019-01-08T01:27:19.985Z,-12.51
2019-01-08T01:29:55.809Z,-12.79
2019-01-08T01:32:28.903Z,-13.14
2019-01-08T01:35:01.798Z,-13.02
2019-01-08T01:37:34.691Z,-12.77
2019-01-08T01:40:08.392Z,-12.69
2019-01-08T01:42:41.610Z,-12.63
2019-01-08T01:45:15.086Z,-12.46
2019-01-08T01:47:47.937Z,-12.22
2019-01-08T01:50:21.254Z,-12.33
2019-01-08T01:52:54.137Z,-12.13
2019-01-08T01:55:27.160Z,-12.14
2019-01-08T01:58:00.361Z,-12.08
2019-01-08T02:00:33.436Z,-11.94
2019-01-08T02:03:06.488Z,-11.74
2019-01-08T02:05:39.870Z,-11.44
2019-01-08T02:08:12.851Z,-11.47
2019-01-08T02:10:45.890Z,-11.41
2019-01-08T02:13:18.890Z,-11.09
2019-01-08T02:15:51.909Z,-10.98
2019-01-08T02:18:25.047Z,-10.76
2019-01-08T02:20:57.999Z,-10.73
2019-01-08T02:23:32.388Z,-10.84
2019-01-08T02:26:05.535Z,-10.86
2019-01-08T02:28:38.388Z,-10.79
2019-01-08T02:31:12.487Z,-10.70
2019-01-08T02:33:45.715Z,-10.36
2019-01-08T02:36:18.638Z,-10.31
2019-01-08T02:38:51.812Z,-10.40
2019-01-08T02:41:24.898Z,-10.23
2019-01-08T02:43:57.931Z,-10.42
2019-01-08T02:46:31.107Z,-10.50
2019-01-08T02:49:04.296Z,-10.65
2019-01-08T02:51:37.549Z,-10.88
2019-01-08T02:54:10.469Z,-10.51
2019-01-08T02:56:43.636Z,-10.22
2019-01-08T02:59:24.871Z,-9.92
2019-01-08T03:01:52.383Z,-9.62
2019-01-08T03:04:25.479Z,-9.81
2019-01-08T03:06:58.511Z,-10.24
2019-01-08T03:09:32.948Z,-10.30
2019-01-08T03:12:06.062Z,-9.88
2019-01-08T03:14:39.211Z,-9.79
2019-01-08T03:17:12.557Z,-9.65
2019-01-08T03:19:45.683Z,-9.10
2019-01-08T03:22:19.044Z,-8.99
2019-01-08T03:24:52.048Z,-8.99
2019-01-08T03:27:25.281Z,-8.78
2019-01-08T03:29:58.328Z,-8.97
2019-01-08T03:32:33.576Z,-8.37
2019-01-08T03:35:07.487Z,-8.81
2019-01-08T03:37:40.931Z,-8.61
2019-01-08T03:40:14.304Z,-8.24
2019-01-08T03:42:47.437Z,-8.46
2019-01-08T03:45:20.474Z,-8.44
2019-01-08T03:47:53.715Z,-8.88
2019-01-08T03:50:27.266Z,-8.95
2019-01-08T03:53:00.962Z,-9.03
2019-01-08T03:55:34.411Z,-8.75
2019-01-08T03:58:08.943Z,-8.56
2019-01-08T04:00:42.110Z,-8.81
2019-01-08T04:03:15.502Z,-8.65
2019-01-08T04:05:49.756Z,-8.42
2019-01-08T04:08:22.973Z,-8.92
2019-01-08T04:10:56.236Z,-8.98
2019-01-08T04:13:30.386Z,-8.85
2019-01-08T04:16:05.034Z,-8.81
2019-01-08T04:18:38.135Z,-9.11
2019-01-08T04:21:11.153Z,-9.03
2019-01-08T04:23:44.401Z,-8.93
2019-01-08T04:26:18.136Z,-8.78
2019-01-08T04:28:52.509Z,-8.87
2019-01-08T04:31:25.864Z,-9.04
2019-01-08T04:33:58.689Z,-9.07
2019-01-08T04:36:32.855Z,-8.88
2019-01-08T04:39:06.379Z,-8.64
2019-01-08T04:41:39.811Z,-8.81
2019-01-08T04:44:13.275Z,-8.36
2019-01-08T04:46:46.480Z,-8.58
2019-01-08T04:49:19.678Z,-8.90
2019-01-08T04:51:54.001Z,-8.87
2019-01-08T04:54:27.067Z,-8.71
2019-01-08T04:57:00.234Z,-9.01
2019-01-08T04:59:34.184Z,-8.68
2019-01-08T05:02:07.205Z,-8.89
2019-01-08T05:04:40.392Z,-8.97
2019-01-08T05:07:14.051Z,-8.97
2019-01-08T05:09:47.074Z,-8.79
2019-01-08T05:12:20.739Z,-8.91
2019-01-08T05:14:53.828Z,-8.59
2019-01-08T05:17:27.437Z,-8.52
2019-01-08T05:20:01.578Z,-8.60
2019-01-08T05:22:35.436Z,-9.01
2019-01-08T05:25:08.807Z,-9.00
2019-01-08T05:27:41.782Z,-9.04
2019-01-08T05:30:15.046Z,-8.75
2019-01-08T05:32:48.792Z,-8.89
2019-01-08T05:35:21.831Z,-9.05
2019-01-08T05:37:55.790Z,-8.98
2019-01-08T05:40:30.089Z,-9.33
2019-01-08T05:43:03.337Z,-9.22
2019-01-08T05:45:36.608Z,-8.74
2019-01-08T05:48:11.593Z,-8.82
2019-01-08T05:50:44.665Z,-9.03
2019-01-08T05:53:17.546Z,-9.03
2019-01-08T05:55:50.705Z,-9.00
2019-01-08T05:58:23.413Z,-8.97
2019-01-08T06:00:56.598Z,-9.05
2019-01-08T06:03:30.429Z,-9.29
2019-01-08T06:06:04.752Z,-9.16
2019-01-08T06:08:37.780Z,-9.28
2019-01-08T06:11:11.011Z,-9.25
2019-01-08T06:13:52.507Z,-9.12
2019-01-08T06:16:25.295Z,-9.11
2019-01-08T06:18:58.462Z,-9.45
2019-01-08T06:21:31.857Z,-9.56
2019-01-08T06:24:05.371Z,-9.30
2019-01-08T06:26:41.975Z,-9.52
2019-01-08T06:29:15.458Z,-9.43
2019-01-08T06:31:48.463Z,-9.27
2019-01-08T06:34:22.483Z,-9.15
2019-01-08T06:36:55.504Z,-9.28
2019-01-08T06:39:29.855Z,-9.26
2019-01-08T06:42:03.136Z,-9.36
2019-01-08T06:44:37.524Z,-9.26
2019-01-08T06:47:11.515Z,-9.51
2019-01-08T06:49:44.531Z,-9.56
2019-01-08T06:52:17.747Z,-10.01
2019-01-08T06:54:50.979Z,-9.75
2019-01-08T06:57:23.831Z,-9.57
2019-01-08T06:59:57.237Z,-9.45
2019-01-08T07:02:30.398Z,-9.68
2019-01-08T07:05:03.915Z,-9.69
2019-01-08T07:07:37.639Z,-9.63
2019-01-08T07:10:11.251Z,-9.74
2019-01-08T07:12:44.534Z,-9.75
2019-01-08T07:15:19.129Z,-9.70
2019-01-08T07:17:53.491Z,-9.57
2019-01-08T07:20:27.599Z,-9.66
2019-01-08T07:23:01.173Z,-9.56
2019-01-08T07:25:41.968Z,-9.59
2019-01-08T07:28:10.102Z,-9.79
2019-01-08T07:30:44.660Z,-9.99
2019-01-08T07:33:18.912Z,-9.87
2019-01-08T07:35:52.772Z,-9.84
2019-01-08T07:38:25.755Z,-9.79
2019-01-08T07:40:59.950Z,-9.97
2019-01-08T07:43:35.332Z,-9.84
2019-01-08T07:46:08.798Z,-9.98
2019-01-08T07:48:41.875Z,-10.04
2019-01-08T07:51:15.368Z,-10.20
2019-01-08T07:53:49.590Z,-10.27
2019-01-08T07:56:23.810Z,-10.16
2019-01-08T07:58:57.062Z,-10.14
2019-01-08T08:01:30.278Z,-10.01
2019-01-08T08:04:03.008Z,-10.13
2019-01-08T08:06:36.323Z,-10.10
2019-01-08T08:09:09.651Z,-10.16
2019-01-08T08:11:43.933Z,-10.15
2019-01-08T08:14:17.744Z,-10.29
2019-01-08T08:16:51.363Z,-10.20
2019-01-08T08:19:24.533Z,-10.11
2019-01-08T08:21:58.415Z,-10.11
2019-01-08T08:24:31.749Z,-10.06
2019-01-08T08:27:05.129Z,-10.06
2019-01-08T08:29:38.562Z,-10.06
2019-01-08T08:32:11.935Z,-10.21
2019-01-08T08:34:46.732Z,-10.25
2019-01-08T08:37:20.631Z,-10.36
2019-01-08T08:39:53.964Z,-10.26
2019-01-08T08:42:27.131Z,-10.18
2019-01-08T08:45:00.727Z,-10.47
2019-01-08T08:47:33.991Z,-10.68
2019-01-08T08:50:08.034Z,-10.54
2019-01-08T08:52:41.315Z,-10.42
2019-01-08T08:55:14.771Z,-10.42
2019-01-08T08:57:48.104Z,-10.45
2019-01-08T09:00:21.328Z,-10.51
2019-01-08T09:02:56.223Z,-10.40
2019-01-08T09:05:29.417Z,-10.49
2019-01-08T09:08:02.433Z,-10.69
2019-01-08T09:10:35.801Z,-10.73
2019-01-08T09:13:10.198Z,-10.51
2019-01-08T09:15:43.916Z,-10.48
2019-01-08T09:18:17.372Z,-10.57
2019-01-08T09:20:52.636Z,-10.58
2019-01-08T09:23:26.072Z,-10.65
2019-01-08T09:25:59.802Z,-10.73
2019-01-08T09:28:32.970Z,-10.72
2019-01-08T09:31:06.145Z,-10.91
2019-01-08T09:33:41.308Z,-10.90
2019-01-08T09:36:14.797Z,-10.88
2019-01-08T09:38:47.956Z,-10.92
2019-01-08T09:41:21.576Z,-10.93
2019-01-08T09:43:55.866Z,-11.06
2019-01-08T09:46:30.294Z,-11.04
2019-01-08T09:49:04.780Z,-11.14
2019-01-08T09:51:38.124Z,-11.33
2019-01-08T09:54:11.428Z,-11.22
2019-01-08T09:56:44.976Z,-11.27
2019-01-08T09:59:23.836Z,-11.31
2019-01-08T10:01:58.536Z,-11.34
2019-01-08T10:04:32.486Z,-11.36
2019-01-08T10:07:05.710Z,-11.40
2019-01-08T10:09:44.198Z,-11.52
2019-01-08T10:12:18.896Z,-11.64
2019-01-08T10:14:53.231Z,-11.74
2019-01-08T10:17:29.730Z,-11.78
2019-01-08T10:20:04.379Z,-11.78
2019-01-08T10:22:41.860Z,-11.70
2019-01-08T10:25:34.014Z,-11.70
2019-01-08T10:28:09.184Z,-11.50
2019-01-08T10:30:44.553Z,-11.42
2019-01-08T10:33:19.082Z,-11.29
2019-01-08T10:35:53.853Z,-11.35
2019-01-08T10:38:27.893Z,-11.34
2019-01-08T10:41:01.869Z,-11.36
2019-01-08T10:43:37.789Z,-11.43
2019-01-08T10:46:12.626Z,-11.25
2019-01-08T10:48:50.864Z,-11.23
2019-01-08T10:51:26.268Z,-11.24
2019-01-08T10:54:01.956Z,-11.27
2019-01-08T10:56:37.334Z,-11.32
2019-01-08T10:59:11.424Z,-11.43
2019-01-08T11:01:51.389Z,-11.40
2019-01-08T11:04:26.438Z,-11.46
2019-01-08T11:07:01.605Z,-11.45
2019-01-08T11:09:37.579Z,-11.31
2019-01-08T11:12:15.095Z,-11.20
2019-01-08T11:14:49.791Z,-11.24
2019-01-08T11:17:26.133Z,-11.35
2019-01-08T11:20:00.188Z,-11.35
2019-01-08T11:22:35.557Z,-11.38
2019-01-08T11:25:15.907Z,-11.39
2019-01-08T11:27:50.159Z,-11.74
2019-01-08T11:30:28.068Z,-11.74
2019-01-08T11:33:02.848Z,-11.75
2019-01-08T11:35:42.523Z,-11.58
2019-01-08T11:38:18.724Z,-11.66
2019-01-08T11:40:53.937Z,-11.63
2019-01-08T11:43:30.284Z,-11.72
2019-01-08T11:46:04.851Z,-11.86
2019-01-08T11:48:41.421Z,-11.92
2019-01-08T11:51:17.391Z,-11.57
2019-01-08T11:53:52.021Z,-11.48
2019-01-08T11:56:26.596Z,-11.66
2019-01-08T11:59:06.471Z,-11.66
2019-01-08T12:01:41.866Z,-11.80
2019-01-08T12:04:18.727Z,-11.69
2019-01-08T12:06:54.942Z,-11.66
2019-01-08T12:09:30.560Z,-11.60
2019-01-08T12:12:05.459Z,-11.62
2019-01-08T12:14:41.845Z,-11.79
2019-01-08T12:17:16.558Z,-11.72
2019-01-08T12:19:51.488Z,-11.70
2019-01-08T12:22:26.683Z,-11.65
2019-01-08T12:25:03.239Z,-11.70
2019-01-08T12:27:38.644Z,-11.55
2019-01-08T12:30:13.981Z,-11.62
2019-01-08T12:32:49.994Z,-11.70
2019-01-08T12:35:24.542Z,-11.74
2019-01-08T12:38:02.986Z,-11.81
2019-01-08T12:40:37.978Z,-11.81
2019-01-08T12:43:14.476Z,-11.82
2019-01-08T12:45:49.060Z,-11.79
2019-01-08T12:48:25.336Z,-11.72
2019-01-08T12:51:00.132Z,-11.74
2019-01-08T12:53:39.457Z,-11.82
2019-01-08T12:56:18.897Z,-11.75
2019-01-08T12:58:55.493Z,-11.73
2019-01-08T13:01:32.232Z,-11.79
2019-01-08T13:04:07.149Z,-11.80
2019-01-08T13:06:43.535Z,-11.79
2019-01-08T13:09:20.373Z,-11.66
2019-01-08T13:11:57.375Z,-11.67
2019-01-08T13:14:33.699Z,-11.71
2019-01-08T13:17:11.760Z,-11.75
2019-01-08T13:19:45.922Z,-11.75
2019-01-08T13:22:25.121Z,-11.68
2019-01-08T13:25:00.581Z,-11.75
2019-01-08T13:27:36.624Z,-11.69
2019-01-08T13:30:11.766Z,-11.75
2019-01-08T13:32:46.564Z,-11.64
2019-01-08T13:35:21.348Z,-11.73
2019-01-08T13:37:55.919Z,-11.81
2019-01-08T13:40:35.309Z,-11.69
2019-01-08T13:43:08.220Z,-11.70
2019-01-08T13:45:43.233Z,-11.65
2019-01-08T13:48:18.994Z,-11.62
2019-01-08T13:50:54.431Z,-11.62
2019-01-08T13:53:28.181Z,-11.53
2019-01-08T13:56:02.615Z,-11.60
2019-01-08T13:58:36.900Z,-11.63
2019-01-08T14:01:11.161Z,-11.71
2019-01-08T14:03:45.406Z,-11.71
2019-01-08T14:06:19.731Z,-11.67
2019-01-08T14:08:54.505Z,-11.71
2019-01-08T14:11:28.818Z,-11.68
2019-01-08T14:14:07.118Z,-11.74
2019-01-08T14:16:44.393Z,-11.75
2019-01-08T14:19:19.928Z,-11.89
2019-01-08T14:21:54.131Z,-11.73
2019-01-08T14:24:28.856Z,-11.72
2019-01-08T14:27:11.576Z,-11.75
2019-01-08T14:29:38.959Z,-11.79
2019-01-08T14:32:13.360Z,-11.95
2019-01-08T14:34:48.126Z,-11.93
2019-01-08T14:37:23.962Z,-12.01
2019-01-08T14:39:59.174Z,-11.93
2019-01-08T14:42:33.375Z,-11.83
2019-01-08T14:45:08.404Z,-11.77
2019-01-08T14:47:44.194Z,-11.95
2019-01-08T14:50:18.483Z,-11.94
2019-01-08T14:52:53.870Z,-11.94
2019-01-08T14:55:27.909Z,-12.10
2019-01-08T14:58:01.813Z,-12.21
2019-01-08T15:00:35.827Z,-12.23
2019-01-08T15:03:10.444Z,-12.15
2019-01-08T15:05:46.258Z,-12.13
2019-01-08T15:08:20.048Z,-12.11
2019-01-08T15:10:53.628Z,-12.11
2019-01-08T15:13:27.688Z,-12.12
2019-01-08T15:16:01.344Z,-12.03
2019-01-08T15:18:35.243Z,-12.08
2019-01-08T15:21:08.810Z,-12.20
2019-01-08T15:23:42.620Z,-12.10
2019-01-08T15:26:16.949Z,-12.23
2019-01-08T15:28:51.192Z,-12.11
2019-01-08T15:31:24.861Z,-12.11
2019-01-08T15:34:02.879Z,-12.11
2019-01-08T15:36:36.888Z,-12.15
2019-01-08T15:39:11.018Z,-12.01
2019-01-08T15:41:54.583Z,-12.11
2019-01-08T15:44:29.906Z,-12.29
2019-01-08T15:47:07.687Z,-12.24
2019-01-08T15:49:42.005Z,-12.21
2019-01-08T15:52:15.903Z,-12.30
2019-01-08T15:54:49.867Z,-12.23
2019-01-08T15:57:23.423Z,-12.23
2019-01-08T15:59:57.224Z,-12.13
2019-01-08T16:02:31.135Z,-12.09
2019-01-08T16:05:05.039Z,-12.12
2019-01-08T16:07:39.973Z,-12.12
2019-01-08T16:10:13.876Z,-12.10
2019-01-08T16:12:47.931Z,-12.06
2019-01-08T16:15:22.897Z,-11.96
2019-01-08T16:18:17.164Z,-12.05
2019-01-08T16:20:51.003Z,-12.05
2019-01-08T16:23:24.827Z,-12.00
2019-01-08T16:25:59.018Z,-12.07
2019-01-08T16:28:32.482Z,-12.11
2019-01-08T16:31:05.688Z,-12.06
2019-01-08T16:33:40.010Z,-12.04
2019-01-08T16:36:13.798Z,-12.10
2019-01-08T16:38:47.553Z,-12.13
2019-01-08T16:41:21.523Z,-12.20
2019-01-08T16:43:55.092Z,-12.15
2019-01-08T16:46:29.087Z,-12.01
2019-01-08T16:49:04.059Z,-12.12
2019-01-08T16:51:38.455Z,-12.21
2019-01-08T16:54:12.236Z,-12.28
2019-01-08T16:56:45.365Z,-12.20
2019-01-08T16:59:19.487Z,-12.08
2019-01-08T17:01:52.560Z,-12.06
2019-01-08T17:04:25.732Z,-12.02
2019-01-08T17:06:58.804Z,-12.04
2019-01-08T17:09:31.971Z,-12.06
2019-01-08T17:12:06.320Z,-12.16
2019-01-08T17:14:39.356Z,-12.14
2019-01-08T17:17:13.477Z,-12.08
2019-01-08T17:19:47.841Z,-11.90
2019-01-08T17:22:20.898Z,-11.99
2019-01-08T17:24:54.242Z,-12.06
2019-01-08T17:27:27.285Z,-11.98
2019-01-08T17:30:00.972Z,-12.00
2019-01-08T17:32:33.887Z,-12.00
2019-01-08T17:35:07.468Z,-12.00
2019-01-08T17:37:40.502Z,-12.02
2019-01-08T17:40:15.696Z,-11.93
2019-01-08T17:42:48.819Z,-11.90
2019-01-08T17:45:22.801Z,-11.96
2019-01-08T17:47:56.769Z,-11.96
2019-01-08T17:50:29.748Z,-11.81
2019-01-08T17:53:03.490Z,-11.82
2019-01-08T17:55:36.557Z,-11.74
2019-01-08T17:58:39.575Z,-11.80
2019-01-08T18:01:18.733Z,-11.87
2019-01-08T18:03:51.755Z,-11.65
2019-01-08T18:06:24.869Z,-11.71
2019-01-08T18:08:58.131Z,-11.83
2019-01-08T18:11:31.397Z,-11.82
2019-01-08T18:14:04.827Z,-11.79
2019-01-08T18:16:37.963Z,-11.80
2019-01-08T18:19:10.939Z,-11.87
2019-01-08T18:21:43.981Z,-11.86
2019-01-08T18:24:17.908Z,-11.67
2019-01-08T18:26:51.338Z,-11.64
2019-01-08T18:29:25.466Z,-11.83
2019-01-08T18:31:58.588Z,-11.85
2019-01-08T18:34:31.751Z,-11.81
2019-01-08T18:37:04.940Z,-11.72
2019-01-08T18:39:39.063Z,-11.70
2019-01-08T18:42:12.519Z,-11.69
2019-01-08T18:44:45.679Z,-11.72
2019-01-08T18:47:18.879Z,-11.84
2019-01-08T18:49:52.036Z,-11.89
2019-01-08T18:52:24.983Z,-11.89
2019-01-08T18:54:58.174Z,-11.99
2019-01-08T18:57:31.517Z,-12.13
2019-01-08T19:00:04.824Z,-12.11
2019-01-08T19:02:37.845Z,-12.09
2019-01-08T19:05:10.997Z,-12.16
2019-01-08T19:07:44.094Z,-12.09
2019-01-08T19:10:18.615Z,-11.99
2019-01-08T19:12:51.462Z,-12.06
2019-01-08T19:15:24.434Z,-12.09
2019-01-08T19:17:57.456Z,-11.99
2019-01-08T19:20:30.775Z,-11.94
2019-01-08T19:23:03.903Z,-11.88
2019-01-08T19:25:36.979Z,-11.90
2019-01-08T19:28:10.035Z,-12.11
2019-01-08T19:30:43.006Z,-12.16
2019-01-08T19:33:16.234Z,-12.15
2019-01-08T19:35:49.198Z,-12.27
2019-01-08T19:38:23.268Z,-12.27
2019-01-08T19:40:56.188Z,-12.23
2019-01-08T19:43:28.845Z,-12.27
2019-01-08T19:46:02.165Z,-12.25
2019-01-08T19:48:35.155Z,-12.26
2019-01-08T19:51:08.148Z,-12.15
2019-01-08T19:53:41.147Z,-12.13
2019-01-08T19:56:14.229Z,-12.20
2019-01-08T19:58:48.161Z,-12.27
2019-01-08T20:01:21.567Z,-12.30
2019-01-08T20:03:54.873Z,-12.08
2019-01-08T20:06:27.878Z,-12.02
2019-01-08T20:09:01.049Z,-12.06
2019-01-08T20:11:35.674Z,-11.99
2019-01-08T20:14:08.562Z,-11.91
2019-01-08T20:16:41.679Z,-11.91
2019-01-08T20:19:14.694Z,-11.69
2019-01-08T20:21:47.697Z,-11.85
2019-01-08T20:24:20.302Z,-11.77
2019-01-08T20:26:54.395Z,-11.91
2019-01-08T20:29:27.480Z,-11.92
2019-01-08T20:32:00.526Z,-11.88
2019-01-08T20:34:33.755Z,-11.97
2019-01-08T20:37:06.695Z,-11.93
2019-01-08T20:39:39.744Z,-11.80
2019-01-08T20:42:12.709Z,-11.81
2019-01-08T20:44:45.569Z,-11.80
2019-01-08T20:47:18.550Z,-11.89
2019-01-08T20:49:51.585Z,-11.94
2019-01-08T20:52:24.586Z,-11.88
2019-01-08T20:54:57.233Z,-12.05
2019-01-08T20:57:30.118Z,-11.99
2019-01-08T21:00:03.034Z,-11.99
2019-01-08T21:02:37.202Z,-12.19
2019-01-08T21:05:10.069Z,-12.08
2019-01-08T21:07:42.995Z,-12.04
2019-01-08T21:10:16.189Z,-11.99
2019-01-08T21:12:50.113Z,-12.03
2019-01-08T21:15:22.931Z,-12.04
2019-01-08T21:17:55.574Z,-12.00
2019-01-08T21:20:28.618Z,-11.91
2019-01-08T21:23:01.602Z,-11.92
2019-01-08T21:25:34.731Z,-11.97
2019-01-08T21:28:07.901Z,-11.97
2019-01-08T21:30:40.933Z,-12.10
2019-01-08T21:33:13.832Z,-12.02
2019-01-08T21:35:47.717Z,-12.02
2019-01-08T21:38:21.732Z,-11.99
2019-01-08T21:40:55.213Z,-12.01
2019-01-08T21:43:28.487Z,-11.99
2019-01-08T21:46:01.552Z,-12.00
2019-01-08T21:48:34.835Z,-12.05
2019-01-08T21:51:07.925Z,-12.10
2019-01-08T21:53:41.023Z,-12.11
2019-01-08T21:56:14.096Z,-12.12
2019-01-08T21:58:47.305Z,-12.06
2019-01-08T22:01:20.584Z,-12.16
2019-01-08T22:03:54.036Z,-12.08
2019-01-08T22:06:27.157Z,-12.10
2019-01-08T22:09:01.640Z,-12.14
2019-01-08T22:11:34.469Z,-12.26
2019-01-08T22:14:08.327Z,-12.20
2019-01-08T22:16:42.733Z,-12.12
2019-01-08T22:19:26.960Z,-12.11
2019-01-08T22:22:00.110Z,-12.08
2019-01-08T22:24:33.158Z,-12.07
2019-01-08T22:27:06.639Z,-12.05
2019-01-08T22:29:40.728Z,-12.15
2019-01-08T22:32:14.093Z,-12.09
2019-01-08T22:34:47.042Z,-12.02
2019-01-08T22:37:19.884Z,-12.12
2019-01-08T22:39:54.249Z,-12.08
2019-01-08T22:42:27.857Z,-12.10
2019-01-08T22:45:01.127Z,-12.13
2019-01-08T22:47:34.180Z,-12.20
2019-01-08T22:50:09.706Z,-12.16
2019-01-08T22:52:44.097Z,-12.10
2019-01-08T22:55:17.414Z,-12.04
2019-01-08T22:57:50.886Z,-12.18
2019-01-08T23:00:25.695Z,-12.23
2019-01-08T23:02:58.692Z,-12.09
2019-01-08T23:05:31.947Z,-12.10
2019-01-08T23:08:05.040Z,-11.99
2019-01-08T23:10:39.928Z,-11.91
2019-01-08T23:13:12.770Z,-11.96
2019-01-08T23:15:45.639Z,-11.86
2019-01-08T23:18:19.142Z,-11.84
2019-01-08T23:20:52.954Z,-11.89
2019-01-08T23:23:27.014Z,-11.83
2019-01-08T23:26:00.316Z,-11.87
2019-01-08T23:28:34.370Z,-11.85
2019-01-08T23:31:08.218Z,-11.85
2019-01-08T23:33:41.168Z,-11.91
2019-01-08T23:36:14.057Z,-11.81
2019-01-08T23:38:48.145Z,-11.80
2019-01-08T23:41:21.239Z,-11.86
2019-01-08T23:43:54.264Z,-11.86
2019-01-08T23:46:27.367Z,-11.81
2019-01-08T23:49:01.411Z,-11.75
2019-01-08T23:51:34.843Z,-11.74
2019-01-08T23:54:09.415Z,-11.71
2019-01-08T23:56:43.097Z,-11.76
2019-01-08T23:59:16.564Z,-11.78
